Time;durP1;ratioP1;P1;durP2;ratioP2;P2;SDS_P1;SDS_P2;PMS_P1;PMS_P2;Temp;Humidity;BMP_temperature;BMP_pressure;BME280_temperature;BME280_humidity;BME280_pressure;Samples;Min_cycle;Max_cycle;Signal;HPM_P1;HPM_P2
2022/04/13 00:02:09;;;;;;;12.43;2.75;;;16.20;91.50;;;;;;7342216;19;108255;-88
2022/04/13 00:04:36;;;;;;;7.47;2.63;;;16.20;91.60;;;;;;7340669;19;108158;-87
2022/04/13 00:07:03;;;;;;;6.10;2.70;;;16.10;91.80;;;;;;7338437;19;108937;-88
2022/04/13 00:09:31;;;;;;;11.10;2.80;;;16.10;92.00;;;;;;7337782;19;107378;-87
2022/04/13 00:11:59;;;;;;;7.47;3.13;;;16.00;92.10;;;;;;7337024;19;108464;-87
2022/04/13 00:14:26;;;;;;;12.60;3.53;;;15.90;92.20;;;;;;7338777;19;108189;-87
2022/04/13 00:16:54;;;;;;;7.88;2.75;;;15.90;92.30;;;;;;7337858;19;107197;-88
2022/04/13 00:19:22;;;;;;;7.88;3.58;;;15.80;92.40;;;;;;7336362;19;107402;-87
2022/04/13 00:21:49;;;;;;;9.82;2.67;;;15.80;92.60;;;;;;7336559;19;107351;-87
2022/04/13 00:24:16;;;;;;;8.02;3.22;;;15.80;92.60;;;;;;7344212;19;108365;-88
2022/04/13 00:26:43;;;;;;;6.55;3.38;;;15.80;92.70;;;;;;7338511;19;109186;-87
2022/04/13 00:29:10;;;;;;;11.80;3.42;;;15.70;92.90;;;;;;7337127;19;108268;-88
2022/04/13 00:31:37;;;;;;;10.30;3.50;;;15.70;93.00;;;;;;7339519;19;107748;-87
2022/04/13 00:34:04;;;;;;;12.05;3.65;;;15.70;93.20;;;;;;7334221;19;108483;-86
2022/04/13 00:36:31;;;;;;;10.85;3.30;;;15.70;93.30;;;;;;7339247;19;108230;-88
2022/04/13 00:38:58;;;;;;;9.93;3.25;;;15.60;93.50;;;;;;7332540;19;107624;-87
2022/04/13 00:41:26;;;;;;;5.32;2.85;;;15.60;93.60;;;;;;7334881;19;109179;-88
2022/04/13 00:44:08;;;;;;;9.40;3.08;;;15.60;93.60;;;;;;7336057;19;107458;-88
2022/04/13 00:46:36;;;;;;;10.05;3.30;;;15.60;93.60;;;;;;7341129;19;108143;-87
2022/04/13 00:49:05;;;;;;;6.43;3.30;;;15.50;93.80;;;;;;7333094;19;108348;-86
2022/04/13 00:51:32;;;;;;;6.18;2.70;;;15.50;93.80;;;;;;7336985;19;109023;-87
2022/04/13 00:54:00;;;;;;;15.00;3.72;;;15.50;94.00;;;;;;7334858;19;109169;-87
2022/04/13 00:56:29;;;;;;;8.57;3.13;;;15.50;94.20;;;;;;7332981;19;107527;-87
2022/04/13 00:59:04;;;;;;;4.95;3.13;;;15.40;94.40;;;;;;7333938;19;108573;-87
2022/04/13 01:01:31;;;;;;;8.48;3.28;;;15.40;94.40;;;;;;7336079;19;108195;-87
2022/04/13 01:04:00;;;;;;;9.35;3.50;;;15.40;94.40;;;;;;7335798;19;107064;-88
2022/04/13 01:06:28;;;;;;;10.32;3.17;;;15.30;94.70;;;;;;7335645;19;107183;-87
2022/04/13 01:08:56;;;;;;;7.55;3.40;;;15.30;94.70;;;;;;7345960;19;109172;-87
2022/04/13 01:11:26;;;;;;;7.90;3.58;;;15.30;94.70;;;;;;7339636;19;108481;-87
2022/04/13 01:13:54;;;;;;;9.98;3.85;;;15.30;94.70;;;;;;7341792;19;109512;-88
2022/04/13 01:16:23;;;;;;;7.20;3.55;;;15.20;94.70;;;;;;7343202;19;108802;-87
2022/04/13 01:18:51;;;;;;;6.43;3.22;;;15.20;94.70;;;;;;7342975;19;107589;-88
2022/04/13 01:21:23;;;;;;;6.43;3.30;;;15.20;94.90;;;;;;7343636;19;109368;-88
2022/04/13 01:23:50;;;;;;;11.30;3.50;;;15.10;95.00;;;;;;7342167;19;107909;-87
2022/04/13 01:26:17;;;;;;;8.93;3.67;;;15.10;95.10;;;;;;7338052;19;110446;-87
2022/04/13 01:28:44;;;;;;;7.00;3.22;;;15.00;95.20;;;;;;7345149;19;108832;-88
2022/04/13 01:31:11;;;;;;;10.68;4.55;;;15.00;95.10;;;;;;7339897;19;108274;-88
2022/04/13 01:33:39;;;;;;;10.60;3.65;;;15.00;95.20;;;;;;7341240;19;109094;-87
2022/04/13 01:36:07;;;;;;;8.88;4.20;;;14.90;95.30;;;;;;7342622;19;111072;-88
2022/04/13 01:38:34;;;;;;;9.90;3.40;;;14.90;95.40;;;;;;7344182;19;108826;-88
2022/04/13 01:41:01;;;;;;;11.30;4.55;;;14.90;95.50;;;;;;7342549;19;110946;-87
2022/04/13 01:43:28;;;;;;;14.23;3.83;;;14.90;95.60;;;;;;7342327;19;108565;-87
2022/04/13 01:45:57;;;;;;;6.70;3.67;;;14.80;95.60;;;;;;7342492;19;108444;-88
2022/04/13 01:48:24;;;;;;;9.38;3.83;;;14.80;95.70;;;;;;7340790;19;109910;-88
2022/04/13 01:50:51;;;;;;;7.63;3.92;;;14.80;95.80;;;;;;7345649;19;109151;-87
2022/04/13 01:53:18;;;;;;;7.38;3.80;;;14.70;95.70;;;;;;7341877;19;107916;-87
2022/04/13 01:55:47;;;;;;;11.27;4.28;;;14.70;95.90;;;;;;7340916;19;108664;-86
2022/04/13 01:58:14;;;;;;;8.70;3.90;;;14.70;96.00;;;;;;7341494;19;110075;-88
2022/04/13 02:00:41;;;;;;;8.85;3.72;;;14.70;96.10;;;;;;7340679;19;111834;-87
2022/04/13 02:03:08;;;;;;;7.50;3.63;;;14.60;96.40;;;;;;7339647;19;107154;-87
2022/04/13 02:05:35;;;;;;;9.45;3.70;;;14.50;96.50;;;;;;7342394;19;108350;-88
2022/04/13 02:08:03;;;;;;;6.47;3.80;;;14.50;96.50;;;;;;7340732;19;108913;-86
2022/04/13 02:10:30;;;;;;;7.78;4.10;;;14.50;96.60;;;;;;7340057;19;107540;-86
2022/04/13 02:12:57;;;;;;;8.45;4.43;;;14.40;96.80;;;;;;7347905;19;108201;-87
2022/04/13 02:15:24;;;;;;;8.70;3.90;;;14.40;96.70;;;;;;7341056;19;108128;-87
2022/04/13 02:17:52;;;;;;;10.82;4.20;;;14.40;96.80;;;;;;7341378;19;108280;-86
2022/04/13 02:20:20;;;;;;;11.68;4.22;;;14.30;97.00;;;;;;7340409;19;110886;-87
2022/04/13 02:22:47;;;;;;;12.80;4.53;;;14.30;97.10;;;;;;7340118;19;107966;-85
2022/04/13 02:25:15;;;;;;;14.70;4.72;;;14.20;97.30;;;;;;7339463;19;111026;-87
2022/04/13 02:27:43;;;;;;;9.50;4.00;;;14.20;97.40;;;;;;7341020;19;111055;-88
2022/04/13 02:30:10;;;;;;;6.40;4.07;;;14.20;97.40;;;;;;7337802;19;108149;-87
2022/04/13 02:32:39;;;;;;;8.90;4.32;;;14.20;97.40;;;;;;7340614;19;108550;-87
2022/04/13 02:35:07;;;;;;;15.68;4.43;;;14.20;97.40;;;;;;7345944;19;108754;-87
2022/04/13 02:37:34;;;;;;;7.97;3.88;;;14.10;97.40;;;;;;7340889;19;107896;-87
2022/04/13 02:40:01;;;;;;;12.63;4.40;;;14.10;97.70;;;;;;7340642;19;108630;-86
2022/04/13 02:42:33;;;;;;;10.32;4.22;;;14.10;97.70;;;;;;7339136;19;107808;-87
2022/04/13 02:45:00;;;;;;;10.35;4.57;;;14.00;97.80;;;;;;7340872;19;108751;-87
2022/04/13 02:47:28;;;;;;;7.97;4.07;;;14.00;97.80;;;;;;7338607;19;109733;-86
2022/04/13 02:49:55;;;;;;;10.05;4.57;;;14.00;97.80;;;;;;7340472;19;108005;-86
2022/04/13 02:52:28;;;;;;;7.65;4.30;;;14.00;97.80;;;;;;7338974;19;107767;-87
2022/04/13 02:54:56;;;;;;;7.47;4.18;;;13.90;98.00;;;;;;7338998;19;109350;-86
2022/04/13 02:57:23;;;;;;;14.07;4.65;;;13.90;97.90;;;;;;7344732;19;107964;-86
2022/04/13 02:59:51;;;;;;;15.60;4.60;;;13.90;97.90;;;;;;7339092;19;108931;-87
2022/04/13 03:02:19;;;;;;;12.32;4.35;;;13.90;98.10;;;;;;7338191;19;107389;-86
2022/04/13 03:04:47;;;;;;;11.75;4.60;;;13.80;98.20;;;;;;7341016;19;107836;-87
2022/04/13 03:07:17;;;;;;;12.10;4.93;;;13.70;98.30;;;;;;7339731;19;108666;-87
2022/04/13 03:09:45;;;;;;;17.63;5.05;;;13.70;98.40;;;;;;7338838;19;107863;-87
2022/04/13 03:12:12;;;;;;;13.95;4.90;;;13.70;98.30;;;;;;7337641;19;107322;-87
2022/04/13 03:14:40;;;;;;;10.05;4.38;;;13.70;98.40;;;;;;7338783;19;109049;-86
2022/04/13 03:17:08;;;;;;;11.73;4.90;;;13.70;98.40;;;;;;7338066;19;107830;-87
2022/04/13 03:19:35;;;;;;;12.48;5.00;;;13.70;98.40;;;;;;7344438;19;107539;-87
2022/04/13 03:22:02;;;;;;;12.10;4.20;;;13.60;98.60;;;;;;7337188;19;107983;-86
2022/04/13 03:24:29;;;;;;;10.25;4.90;;;13.60;98.70;;;;;;7339366;19;108100;-86
2022/04/13 03:26:57;;;;;;;16.27;5.18;;;13.60;98.60;;;;;;7338757;19;108299;-86
2022/04/13 03:29:24;;;;;;;12.50;5.50;;;13.60;98.70;;;;;;7339485;19;108414;-87
2022/04/13 03:31:52;;;;;;;10.93;5.10;;;13.60;98.80;;;;;;7333536;19;107991;-86
2022/04/13 03:34:22;;;;;;;11.65;5.35;;;13.60;98.90;;;;;;7340190;19;108266;-87
2022/04/13 03:36:50;;;;;;;11.05;4.90;;;13.60;99.00;;;;;;7338670;19;108382;-87
2022/04/13 03:39:17;;;;;;;11.45;5.13;;;13.60;99.00;;;;;;7344031;19;110491;-86
2022/04/13 03:41:44;;;;;;;11.10;5.25;;;13.50;99.00;;;;;;7335598;19;108303;-86
2022/04/13 03:44:11;;;;;;;9.40;5.20;;;13.50;99.20;;;;;;7339696;19;107918;-88
2022/04/13 03:46:38;;;;;;;8.75;5.13;;;13.40;99.30;;;;;;7336862;19;108819;-87
2022/04/13 03:49:09;;;;;;;8.90;5.18;;;13.40;99.30;;;;;;7335427;19;108182;-87
2022/04/13 03:51:36;;;;;;;10.45;5.38;;;13.40;99.50;;;;;;7335358;19;107538;-86
2022/04/13 03:54:03;;;;;;;11.52;5.93;;;13.40;99.60;;;;;;7338103;19;107853;-87
2022/04/13 03:56:30;;;;;;;11.95;5.82;;;13.40;99.90;;;;;;7338335;19;108231;-87
2022/04/13 03:58:58;;;;;;;12.48;4.97;;;13.30;99.90;;;;;;7338168;19;108231;-87
2022/04/13 04:01:28;;;;;;;13.35;5.80;;;13.30;99.90;;;;;;7342960;19;107863;-87
2022/04/13 04:03:55;;;;;;;11.90;5.30;;;13.40;99.90;;;;;;7339111;19;108368;-87
2022/04/13 04:06:23;;;;;;;12.13;5.50;;;13.40;99.90;;;;;;7337584;19;111444;-86
2022/04/13 04:08:51;;;;;;;9.40;5.03;;;13.40;99.90;;;;;;7337886;19;107732;-87
2022/04/13 04:11:18;;;;;;;9.88;5.47;;;13.40;99.90;;;;;;7336985;19;109920;-85
2022/04/13 04:13:45;;;;;;;10.05;5.18;;;13.40;99.90;;;;;;7336734;19;109134;-86
2022/04/13 04:16:13;;;;;;;13.60;5.68;;;13.40;99.90;;;;;;7338324;19;107636;-87
2022/04/13 04:18:40;;;;;;;9.90;4.93;;;13.30;99.90;;;;;;7338848;19;107731;-87
2022/04/13 04:21:07;;;;;;;11.63;5.65;;;13.30;99.90;;;;;;7338365;19;108642;-87
2022/04/13 04:23:34;;;;;;;11.20;5.93;;;13.30;99.90;;;;;;7342628;19;107349;-87
2022/04/13 04:26:01;;;;;;;15.43;5.53;;;13.30;99.90;;;;;;7334729;19;109787;-87
2022/04/13 04:28:28;;;;;;;13.05;6.00;;;13.30;99.90;;;;;;7335940;19;107510;-87
2022/04/13 04:30:56;;;;;;;19.80;7.28;;;13.30;99.90;;;;;;7335370;19;109687;-86
2022/04/13 04:33:24;;;;;;;13.95;7.32;;;13.30;99.90;;;;;;7335833;19;108739;-87
2022/04/13 04:35:51;;;;;;;23.15;7.80;;;13.30;99.90;;;;;;7336409;19;108089;-87
2022/04/13 04:38:19;;;;;;;18.75;7.38;;;13.30;99.90;;;;;;7334490;19;108159;-87
2022/04/13 04:40:46;;;;;;;14.15;6.35;;;13.40;99.90;;;;;;7336961;19;108541;-86
2022/04/13 04:43:13;;;;;;;12.80;6.32;;;13.40;99.90;;;;;;7337472;19;107099;-87
2022/04/13 04:45:41;;;;;;;13.82;6.35;;;13.40;99.90;;;;;;7338989;19;109232;-87
2022/04/13 04:48:08;;;;;;;18.05;6.47;;;13.40;99.90;;;;;;7335173;19;111552;-87
2022/04/13 04:50:35;;;;;;;15.43;6.70;;;13.40;99.90;;;;;;7336859;19;111086;-86
2022/04/13 04:53:03;;;;;;;17.20;7.20;;;13.50;99.90;;;;;;7335657;19;112983;-87
2022/04/13 04:55:31;;;;;;;15.02;7.28;;;13.50;99.90;;;;;;7333742;19;108205;-87
2022/04/13 04:57:58;;;;;;;17.17;8.35;;;13.50;99.90;;;;;;7336087;19;108511;-87
2022/04/13 05:00:25;;;;;;;16.83;8.15;;;13.50;99.90;;;;;;7333784;19;109267;-87
2022/04/13 05:02:53;;;;;;;19.20;8.18;;;13.50;99.90;;;;;;7334137;19;108225;-87
2022/04/13 05:05:21;;;;;;;18.60;7.75;;;13.50;99.90;;;;;;7334497;19;108294;-87
2022/04/13 05:07:48;;;;;;;12.98;7.45;;;13.50;99.90;;;;;;7339110;19;108918;-88
2022/04/13 05:10:15;;;;;;;15.55;7.32;;;13.60;99.90;;;;;;7336556;19;109877;-87
2022/04/13 05:12:47;;;;;;;10.57;7.00;;;13.60;99.90;;;;;;7334150;19;111509;-87
2022/04/13 05:15:15;;;;;;;14.90;8.07;;;13.60;99.90;;;;;;7336678;19;107282;-88
2022/04/13 05:17:42;;;;;;;16.30;9.40;;;13.60;99.90;;;;;;7334043;19;108777;-89
2022/04/13 05:20:10;;;;;;;16.75;9.40;;;13.60;99.90;;;;;;7337479;19;108927;-89
2022/04/13 05:22:38;;;;;;;22.95;9.90;;;13.60;99.90;;;;;;7331660;19;109522;-88
2022/04/13 05:25:10;;;;;;;20.17;10.38;;;13.70;99.90;;;;;;7331757;19;109173;-89
2022/04/13 05:27:37;;;;;;;21.73;10.50;;;13.70;99.90;;;;;;7329167;19;110253;-88
2022/04/13 05:30:06;;;;;;;18.38;9.45;;;13.70;99.90;;;;;;7337312;19;109824;-89
2022/04/13 05:32:46;;;;;;;21.88;9.75;;;13.70;99.90;;;;;;7331819;19;108025;-89
2022/04/13 05:35:13;;;;;;;15.73;8.50;;;13.70;99.90;;;;;;7335163;19;110782;-89
2022/04/13 05:37:40;;;;;;;17.05;9.00;;;13.70;99.90;;;;;;7335347;19;108294;-88
2022/04/13 05:40:07;;;;;;;21.45;9.80;;;13.70;99.90;;;;;;7336010;19;109669;-87
2022/04/13 05:42:34;;;;;;;17.65;9.85;;;13.80;99.90;;;;;;7333840;19;107946;-89
2022/04/13 05:45:02;;;;;;;26.50;11.00;;;13.80;99.90;;;;;;7331612;19;110528;-89
2022/04/13 05:47:29;;;;;;;20.35;10.13;;;13.80;99.90;;;;;;7331964;19;111742;-89
2022/04/13 05:49:56;;;;;;;17.95;9.68;;;13.80;99.90;;;;;;7338972;19;114176;-88
2022/04/13 05:52:23;;;;;;;18.60;10.35;;;13.90;99.90;;;;;;7332418;19;109284;-88
2022/04/13 05:54:50;;;;;;;19.60;10.52;;;13.90;99.90;;;;;;7334251;19;111539;-87
2022/04/13 05:57:17;;;;;;;21.17;10.57;;;13.90;99.90;;;;;;7338255;19;111045;-88
2022/04/13 05:59:44;;;;;;;20.02;10.43;;;13.90;99.90;;;;;;7338086;19;110800;-88
2022/04/13 06:02:11;;;;;;;23.08;11.63;;;13.90;99.90;;;;;;7336623;19;111825;-88
2022/04/13 06:04:38;;;;;;;24.15;11.43;;;14.00;99.90;;;;;;7336501;19;115419;-85
2022/04/13 06:07:05;;;;;;;19.20;10.65;;;13.90;99.90;;;;;;7335958;19;110643;-88
2022/04/13 06:09:32;;;;;;;21.40;10.85;;;14.00;99.90;;;;;;7336258;19;110203;-87
2022/04/13 06:11:59;;;;;;;20.23;11.10;;;14.00;99.90;;;;;;7337821;19;115386;-87
2022/04/13 06:14:26;;;;;;;21.73;11.27;;;14.10;99.90;;;;;;7337192;19;114525;-87
2022/04/13 06:16:53;;;;;;;19.70;11.05;;;14.20;99.90;;;;;;7335324;19;112116;-86
2022/04/13 06:19:20;;;;;;;23.17;11.15;;;14.20;99.90;;;;;;7337778;19;110729;-86
2022/04/13 06:21:47;;;;;;;22.63;11.07;;;14.30;99.90;;;;;;7335989;19;111834;-87
2022/04/13 06:24:14;;;;;;;16.45;11.27;;;14.30;99.90;;;;;;7332303;19;111090;-86
2022/04/13 06:26:42;;;;;;;17.17;11.05;;;14.30;99.90;;;;;;7332913;19;110481;-87
2022/04/13 06:29:09;;;;;;;14.63;10.05;;;14.40;99.90;;;;;;7334402;19;111334;-87
2022/04/13 06:31:36;;;;;;;23.50;10.45;;;14.50;99.90;;;;;;7334204;19;113061;-87
2022/04/13 06:34:03;;;;;;;22.30;11.32;;;14.50;99.90;;;;;;7341191;19;112140;-87
2022/04/13 06:36:30;;;;;;;21.08;11.52;;;14.50;99.90;;;;;;7335096;19;112117;-86
2022/04/13 06:38:57;;;;;;;24.45;11.52;;;14.50;99.90;;;;;;7336535;19;110833;-87
2022/04/13 06:41:24;;;;;;;22.02;11.50;;;14.60;99.90;;;;;;7337206;19;111480;-87
2022/04/13 06:43:53;;;;;;;23.17;10.75;;;14.60;99.90;;;;;;7334605;19;111002;-86
2022/04/13 06:46:20;;;;;;;24.63;11.45;;;14.60;99.90;;;;;;7333377;19;112880;-87
2022/04/13 06:48:47;;;;;;;24.63;12.43;;;14.60;99.90;;;;;;7335608;19;110895;-87
2022/04/13 06:51:14;;;;;;;21.50;11.65;;;14.70;99.90;;;;;;7334059;19;113226;-87
2022/04/13 06:53:41;;;;;;;20.15;11.38;;;14.70;99.90;;;;;;7334936;19;111376;-87
2022/04/13 06:56:08;;;;;;;27.30;12.73;;;14.80;99.90;;;;;;7340623;19;111019;-87
2022/04/13 06:58:35;;;;;;;24.65;13.27;;;14.80;99.90;;;;;;7334986;19;110068;-87
2022/04/13 07:01:02;;;;;;;25.08;12.55;;;14.90;99.90;;;;;;7335818;19;112113;-87
2022/04/13 07:03:29;;;;;;;21.60;12.13;;;14.90;99.90;;;;;;7333466;19;111020;-87
2022/04/13 07:05:57;;;;;;;25.40;11.98;;;14.90;99.90;;;;;;7336017;19;111560;-87
2022/04/13 07:08:24;;;;;;;26.13;11.98;;;15.00;99.90;;;;;;7335615;19;111900;-87
2022/04/13 07:10:51;;;;;;;23.67;11.30;;;15.00;99.90;;;;;;7334099;19;111849;-87
2022/04/13 07:13:19;;;;;;;25.67;12.38;;;15.10;99.90;;;;;;7330236;19;111249;-87
2022/04/13 07:15:46;;;;;;;22.50;11.18;;;15.20;99.90;;;;;;7330728;19;111576;-88
2022/04/13 07:18:13;;;;;;;27.23;11.88;;;15.30;99.90;;;;;;7340522;19;113018;-86
2022/04/13 07:20:41;;;;;;;22.35;12.75;;;15.40;99.90;;;;;;7336292;19;112178;-86
2022/04/13 07:23:08;;;;;;;26.55;12.38;;;15.40;99.90;;;;;;7336913;19;113826;-86
2022/04/13 07:25:35;;;;;;;24.27;11.57;;;15.50;99.90;;;;;;7330948;19;110575;-87
2022/04/13 07:28:03;;;;;;;22.63;10.75;;;15.60;99.90;;;;;;7332166;19;111262;-87
2022/04/13 07:30:31;;;;;;;28.30;11.18;;;15.70;99.90;;;;;;7336253;19;112488;-88
2022/04/13 07:33:01;;;;;;;26.63;12.05;;;15.80;99.90;;;;;;7329463;19;111074;-88
2022/04/13 07:35:31;;;;;;;25.13;11.73;;;15.80;99.90;;;;;;7334359;19;112025;-90
2022/04/13 07:37:58;;;;;;;30.00;11.20;;;16.00;99.90;;;;;;7336745;19;112275;-89
2022/04/13 07:40:25;;;;;;;26.88;11.23;;;16.10;99.90;;;;;;7335431;19;115248;-90
2022/04/13 07:42:52;;;;;;;24.55;11.57;;;16.20;99.90;;;;;;7334613;19;111482;-89
2022/04/13 07:45:20;;;;;;;22.33;11.77;;;16.30;99.90;;;;;;7335160;19;111390;-90
2022/04/13 07:47:47;;;;;;;24.10;12.07;;;16.40;99.90;;;;;;7332194;19;110914;-89
2022/04/13 07:50:14;;;;;;;25.85;12.10;;;16.50;99.90;;;;;;7332137;19;112792;-89
2022/04/13 07:52:42;;;;;;;31.13;12.55;;;16.70;99.90;;;;;;7333584;19;111461;-89
2022/04/13 07:55:10;;;;;;;24.63;12.23;;;16.70;99.90;;;;;;7333589;19;110010;-89
2022/04/13 07:57:39;;;;;;;22.48;12.45;;;16.90;99.90;;;;;;7335977;19;111886;-90
2022/04/13 08:00:09;;;;;;;22.65;12.18;;;16.90;99.90;;;;;;7341876;19;111996;-88
2022/04/13 08:02:39;;;;;;;28.55;13.05;;;17.00;99.90;;;;;;7336515;19;114500;-88
2022/04/13 08:05:07;;;;;;;31.52;13.38;;;17.10;99.90;;;;;;7334505;19;110591;-89
2022/04/13 08:07:35;;;;;;;25.63;13.32;;;17.20;99.90;;;;;;7335426;19;113273;-89
2022/04/13 08:10:02;;;;;;;31.63;14.38;;;17.30;99.90;;;;;;7333957;19;114718;-89
2022/04/13 08:12:30;;;;;;;24.60;12.45;;;17.30;99.90;;;;;;7333291;19;110637;-89
2022/04/13 08:14:58;;;;;;;26.63;13.30;;;17.40;99.90;;;;;;7336880;19;112357;-89
2022/04/13 08:17:26;;;;;;;23.80;13.23;;;17.50;99.90;;;;;;7333012;19;110793;-89
2022/04/13 08:19:54;;;;;;;30.15;12.63;;;17.60;99.90;;;;;;7332507;19;110241;-89
2022/04/13 08:22:26;;;;;;;28.40;14.02;;;17.70;99.90;;;;;;7340191;19;110665;-89
2022/04/13 08:24:53;;;;;;;28.33;12.88;;;17.70;99.90;;;;;;7334687;19;110587;-89
2022/04/13 08:27:20;;;;;;;32.88;13.30;;;17.80;99.90;;;;;;7334382;19;112689;-89
2022/04/13 08:29:47;;;;;;;38.70;13.63;;;17.90;99.90;;;;;;7333153;19;113406;-88
2022/04/13 08:32:18;;;;;;;28.92;13.13;;;17.90;99.90;;;;;;7332807;19;110239;-87
2022/04/13 08:34:48;;;;;;;23.92;13.18;;;17.90;99.90;;;;;;7334183;19;113422;-89
2022/04/13 08:37:15;;;;;;;29.08;13.38;;;18.00;99.90;;;;;;7334387;19;113167;-89
2022/04/13 08:39:42;;;;;;;30.48;13.70;;;18.00;99.90;;;;;;7332347;19;110770;-88
2022/04/13 08:42:27;;;;;;;25.77;13.13;;;18.00;99.90;;;;;;7334968;19;111517;-89
2022/04/13 08:44:56;;;;;;;29.90;12.95;;;17.90;99.90;;;;;;7337323;19;113313;-88
2022/04/13 08:47:24;;;;;;;21.90;13.10;;;18.00;99.90;;;;;;7330669;19;113878;-89
2022/04/13 08:49:52;;;;;;;29.55;13.32;;;17.90;99.90;;;;;;7331492;19;113301;-89
2022/04/13 08:52:33;;;;;;;25.73;12.55;;;17.90;99.90;;;;;;7332530;19;110116;-89
2022/04/13 08:55:14;;;;;;;27.52;12.52;;;17.90;99.90;;;;;;7335023;19;112590;-89
2022/04/13 08:57:48;;;;;;;16.50;10.98;;;17.90;99.90;;;;;;7332637;19;112633;-89
2022/04/13 09:00:18;;;;;;;20.88;11.50;;;17.80;99.90;;;;;;7334847;19;111413;-88
2022/04/13 09:02:48;;;;;;;17.40;11.13;;;17.80;99.90;;;;;;7331113;19;112617;-88
2022/04/13 09:05:23;;;;;;;22.40;11.55;;;17.80;99.90;;;;;;7332071;19;111815;-90
2022/04/13 09:07:57;;;;;;;24.70;12.40;;;17.70;99.90;;;;;;7336697;19;110355;-89
2022/04/13 09:10:26;;;;;;;18.67;12.43;;;17.70;99.90;;;;;;7330927;19;111834;-89
2022/04/13 09:12:56;;;;;;;25.25;13.30;;;17.70;99.90;;;;;;7333451;19;110610;-89
2022/04/13 09:15:24;;;;;;;23.90;14.68;;;17.70;99.90;;;;;;7331766;19;111141;-89
2022/04/13 09:17:51;;;;;;;29.13;13.88;;;17.70;99.90;;;;;;7333276;19;115132;-88
2022/04/13 09:20:18;;;;;;;25.60;13.77;;;17.60;99.90;;;;;;7331667;19;110752;-89
2022/04/13 09:22:46;;;;;;;22.85;14.13;;;17.60;99.90;;;;;;7333755;19;110396;-89
2022/04/13 09:25:13;;;;;;;24.65;14.27;;;17.60;99.90;;;;;;7331776;19;114937;-89
2022/04/13 09:27:40;;;;;;;25.83;14.35;;;17.60;99.90;;;;;;7333261;19;109953;-89
2022/04/13 09:30:09;;;;;;;24.85;14.57;;;17.60;99.90;;;;;;7340415;19;112788;-89
2022/04/13 09:32:36;;;;;;;30.20;15.07;;;17.60;99.90;;;;;;7337403;19;112208;-90
2022/04/13 09:35:03;;;;;;;29.88;15.07;;;17.60;99.90;;;;;;7338582;19;111888;-89
2022/04/13 09:37:31;;;;;;;22.63;14.48;;;17.50;99.90;;;;;;7339694;19;115100;-89
2022/04/13 09:40:00;;;;;;;26.02;14.73;;;17.50;99.90;;;;;;7340302;19;110375;-89
2022/04/13 09:42:27;;;;;;;27.60;14.60;;;17.60;99.90;;;;;;7340607;19;111330;-89
2022/04/13 09:44:56;;;;;;;23.55;13.73;;;17.50;99.90;;;;;;7338480;19;115118;-90
2022/04/13 09:47:33;;;;;;;27.60;14.43;;;17.50;99.90;;;;;;7336825;19;110520;-89
2022/04/13 09:50:01;;;;;;;23.58;13.70;;;17.50;99.90;;;;;;7342073;19;111730;-89
2022/04/13 09:52:35;;;;;;;26.63;13.52;;;17.50;99.90;;;;;;7338922;19;110403;-89
2022/04/13 09:55:04;;;;;;;23.13;14.45;;;17.50;99.90;;;;;;7338845;19;112125;-89
2022/04/13 09:57:32;;;;;;;23.27;13.68;;;17.50;99.90;;;;;;7337338;19;111643;-89
2022/04/13 10:00:03;;;;;;;26.15;13.98;;;17.50;99.90;;;;;;7339628;19;110559;-89
2022/04/13 10:02:37;;;;;;;36.80;14.70;;;17.50;99.90;;;;;;7340289;19;111173;-90
2022/04/13 10:05:20;;;;;;;27.13;14.13;;;17.50;99.90;;;;;;7338772;19;111475;-90
2022/04/13 10:08:03;;;;;;;30.25;14.40;;;17.40;99.90;;;;;;7337717;19;110856;-90
2022/04/13 10:10:30;;;;;;;23.90;13.68;;;17.40;99.90;;;;;;7339293;19;112009;-90
2022/04/13 10:12:57;;;;;;;25.25;13.68;;;17.40;99.90;;;;;;7341337;19;113294;-89
2022/04/13 10:15:24;;;;;;;27.13;13.45;;;17.40;99.90;;;;;;7335803;19;113910;-89
2022/04/13 10:17:58;;;;;;;29.38;13.55;;;17.40;99.90;;;;;;7340951;19;114574;-94
2022/04/13 10:20:42;;;;;;;28.05;13.38;;;17.50;99.90;;;;;;7346173;19;109794;-93
2022/04/13 10:23:09;;;;;;;27.27;12.60;;;17.50;99.90;;;;;;7342253;19;111289;-93
2022/04/13 10:25:37;;;;;;;25.70;12.35;;;17.50;99.90;;;;;;7339994;19;113221;-93
2022/04/13 10:28:05;;;;;;;30.27;13.48;;;17.50;99.90;;;;;;7341932;19;110236;-94
2022/04/13 10:30:36;;;;;;;21.10;11.50;;;17.50;99.90;;;;;;7340211;19;110686;-93
2022/04/13 10:33:05;;;;;;;20.90;11.32;;;17.40;99.90;;;;;;7341011;19;110823;-95
2022/04/13 10:35:36;;;;;;;26.08;12.18;;;17.40;99.90;;;;;;7345082;19;110825;-93
2022/04/13 10:38:03;;;;;;;29.38;11.70;;;17.30;99.90;;;;;;7343460;19;111245;-94
2022/04/13 10:40:35;;;;;;;28.15;11.15;;;17.40;99.90;;;;;;7338651;19;110223;-95
2022/04/13 10:43:04;;;;;;;23.27;11.48;;;17.30;99.90;;;;;;7341738;19;112291;-94
2022/04/13 10:45:35;;;;;;;19.33;10.52;;;17.30;99.90;;;;;;7339502;19;114045;-93
2022/04/13 10:48:10;;;;;;;23.98;10.75;;;17.30;99.90;;;;;;7339098;19;110190;-93
2022/04/13 10:50:38;;;;;;;24.75;11.18;;;17.20;99.90;;;;;;7334583;19;113358;-92
2022/04/13 10:53:22;;;;;;;25.38;10.52;;;17.20;99.90;;;;;;7337739;19;110880;-93
2022/04/13 10:55:58;;;;;;;19.10;10.20;;;17.20;99.90;;;;;;7333077;19;111352;-92
2022/04/13 10:58:58;;;;;;;21.53;10.03;;;17.20;99.90;;;;;;7344788;19;112285;-93
2022/04/13 11:01:31;;;;;;;21.23;10.18;;;17.20;99.90;;;;;;7336647;19;110887;-94
2022/04/13 11:03:58;;;;;;;14.45;10.57;;;17.10;99.90;;;;;;7339125;19;111319;-92
2022/04/13 11:06:27;;;;;;;25.40;11.00;;;17.20;99.90;;;;;;7336710;19;115045;-93
2022/04/13 11:09:42;;;;;;;20.38;10.40;;;17.10;99.90;;;;;;7338630;19;110346;-94
2022/04/13 11:12:10;;;;;;;19.10;11.55;;;17.20;99.90;;;;;;7337070;19;112729;-92
2022/04/13 11:14:50;;;;;;;17.83;10.65;;;17.10;99.90;;;;;;7339046;19;113381;-93
2022/04/13 11:17:25;;;;;;;21.05;12.02;;;17.20;99.90;;;;;;7338792;19;110286;-92
2022/04/13 11:20:20;;;;;;;21.35;12.63;;;17.20;99.90;;;;;;7340097;19;111605;-94
2022/04/13 11:23:15;;;;;;;23.67;12.23;;;17.30;99.90;;;;;;7344352;19;111872;-91
2022/04/13 11:25:48;;;;;;;20.38;12.00;;;17.30;99.90;;;;;;7337694;19;112606;-93
2022/04/13 11:28:27;;;;;;;24.65;11.68;;;17.20;99.90;;;;;;7336570;19;113955;-94
2022/04/13 11:31:31;;;;;;;20.70;11.32;;;17.20;99.90;;;;;;7339149;19;110342;-92
2022/04/13 11:33:58;;;;;;;25.65;12.23;;;17.20;99.90;;;;;;7335883;19;112012;-91
2022/04/13 11:36:29;;;;;;;19.90;11.65;;;17.20;99.90;;;;;;7338787;19;111914;-93
2022/04/13 11:39:13;;;;;;;18.27;12.07;;;17.30;99.90;;;;;;7332203;19;110394;-90
2022/04/13 11:42:00;;;;;;;22.20;12.73;;;17.40;99.90;;;;;;7338155;19;111924;-92
2022/04/13 11:44:46;;;;;;;21.33;12.25;;;17.50;99.90;;;;;;7346635;19;111824;-94
2022/04/13 11:47:15;;;;;;;21.02;13.77;;;17.40;99.90;;;;;;7356240;19;111781;-94
2022/04/13 11:50:02;;;;;;;18.65;12.38;;;17.40;99.90;;;;;;7347635;19;110533;-91
2022/04/13 11:52:43;;;;;;;25.48;12.35;;;17.40;99.90;;;;;;7339649;19;110639;-91
2022/04/13 11:55:48;;;;;;;20.95;12.75;;;17.40;99.90;;;;;;7338285;19;111991;-92
2022/04/13 11:58:20;;;;;;;22.30;11.77;;;17.40;99.90;;;;;;7334714;19;111432;-91
2022/04/13 12:00:55;;;;;;;23.02;12.88;;;17.40;99.90;;;;;;7337830;19;109953;-91
2022/04/13 12:03:28;;;;;;;23.83;12.48;;;17.40;99.90;;;;;;7338631;19;109815;-93
2022/04/13 12:06:19;;;;;;;22.33;11.85;;;17.40;99.90;;;;;;7341925;19;113125;-92
2022/04/13 12:08:50;;;;;;;21.45;12.02;;;17.30;99.90;;;;;;7349464;19;109777;-92
2022/04/13 12:11:19;;;;;;;24.02;13.32;;;17.30;99.90;;;;;;7351181;19;113276;-94
2022/04/13 12:13:52;;;;;;;22.17;12.68;;;17.20;99.90;;;;;;7351964;19;109735;-94
2022/04/13 12:16:27;;;;;;;21.52;13.05;;;17.20;99.90;;;;;;7335200;19;111514;-89
2022/04/13 12:18:59;;;;;;;24.92;12.55;;;17.20;99.90;;;;;;7334929;19;111704;-89
2022/04/13 12:21:29;;;;;;;23.85;12.77;;;17.30;99.90;;;;;;7335327;19;109885;-90
2022/04/13 12:23:56;;;;;;;17.83;12.57;;;17.30;99.90;;;;;;7335714;19;115223;-91
2022/04/13 12:26:37;;;;;;;20.90;12.15;;;17.40;99.90;;;;;;7338392;19;113140;-93
2022/04/13 12:29:12;;;;;;;20.27;12.18;;;17.40;99.90;;;;;;7339133;19;110404;-92
2022/04/13 12:31:53;;;;;;;20.92;12.05;;;17.40;99.90;;;;;;7358206;19;109847;-95
2022/04/13 12:34:25;;;;;;;17.30;12.45;;;17.40;99.90;;;;;;7350350;19;110905;-91
2022/04/13 12:36:57;;;;;;;17.98;11.65;;;17.40;99.90;;;;;;7337644;19;111680;-91